Time,TemperatureF,DewpointF,PressureIn,WindDirection,WindDirectionDegrees,WindSpeedMPH,WindSpeedGustMPH,Humidity,HourlyPrecipIn,Conditions,Clouds,dailyrainin,SoftwareType,DateUTC
2013-07-13 00:10:00,85.3,68.3,29.76,SE,131,6.0,6.0,57,0.00,,,0.00,Wunderground v.1.15,2013-07-13 05:10:00,
2013-07-13 00:20:00,85.2,68.2,29.76,SSE,160,6.0,6.0,57,0.00,,,0.00,Wunderground v.1.15,2013-07-13 05:20:00,
2013-07-13 00:30:00,85.1,67.6,29.76,SE,136,5.0,5.0,56,0.00,,,0.00,Wunderground v.1.15,2013-07-13 05:30:00,
2013-07-13 00:40:00,85.1,67.6,29.76,SE,134,6.0,6.0,56,0.00,,,0.00,Wunderground v.1.15,2013-07-13 05:40:00,
2013-07-13 00:50:00,84.9,68.0,29.77,SE,136,6.0,6.0,57,0.00,,,0.00,Wunderground v.1.15,2013-07-13 05:50:00,
2013-07-13 01:00:00,84.4,68.0,29.77,SE,132,5.0,5.0,58,0.00,,,0.00,Wunderground v.1.15,2013-07-13 06:00:00,
2013-07-13 01:10:00,84.1,67.7,29.77,SE,135,5.0,8.0,58,0.00,,,0.00,Wunderground v.1.15,2013-07-13 06:10:00,
2013-07-13 01:20:00,84.0,67.6,29.77,SSE,149,5.0,6.0,58,0.00,,,0.00,Wunderground v.1.15,2013-07-13 06:20:00,
2013-07-13 01:30:00,84.2,67.8,29.77,SE,145,6.0,8.0,58,0.00,,,0.00,Wunderground v.1.15,2013-07-13 06:30:00,
2013-07-13 01:40:00,84.4,68.0,29.77,South,181,7.0,7.0,58,0.00,,,0.00,Wunderground v.1.15,2013-07-13 06:40:00,
2013-07-13 01:50:00,84.3,67.9,29.77,SE,133,6.0,8.0,58,0.00,,,0.00,Wunderground v.1.15,2013-07-13 06:50:00,
2013-07-13 02:00:00,84.2,68.3,29.77,SW,221,6.0,6.0,59,0.00,,,0.00,Wunderground v.1.15,2013-07-13 07:00:00,
2013-07-13 02:10:00,84.1,68.2,29.77,SE,139,6.0,8.0,59,0.00,,,0.00,Wunderground v.1.15,2013-07-13 07:10:00,
2013-07-13 02:20:00,83.9,68.5,29.77,ESE,117,5.0,6.0,60,0.00,,,0.00,Wunderground v.1.15,2013-07-13 07:20:00,
2013-07-13 02:30:00,83.5,68.6,29.78,SE,124,4.0,4.0,61,0.00,,,0.00,Wunderground v.1.15,2013-07-13 07:30:00,
2013-07-13 02:40:00,83.1,68.7,29.78,SE,133,3.0,3.0,62,0.00,,,0.00,Wunderground v.1.15,2013-07-13 07:40:00,
2013-07-13 02:50:00,82.6,68.7,29.79,SE,124,1.0,1.0,63,0.00,,,0.00,Wunderground v.1.15,2013-07-13 07:50:00,
2013-07-13 03:00:00,82.1,68.7,29.79,SE,134,1.0,3.0,64,0.00,,,0.00,Wunderground v.1.15,2013-07-13 08:00:00,
2013-07-13 03:10:00,81.9,68.5,29.79,SE,132,2.0,2.0,64,0.00,,,0.00,Wunderground v.1.15,2013-07-13 08:10:00,
2013-07-13 03:20:00,81.6,68.7,29.79,SE,132,1.0,1.0,65,0.00,,,0.00,Wunderground v.1.15,2013-07-13 08:20:00,
2013-07-13 03:30:00,81.3,68.4,29.79,SE,124,0.0,0.0,65,0.00,,,0.00,Wunderground v.1.15,2013-07-13 08:30:00,
2013-07-13 03:40:00,81.1,68.7,29.79,ESE,113,1.0,1.0,66,0.00,,,0.00,Wunderground v.1.15,2013-07-13 08:40:00,
2013-07-13 03:50:00,81.0,68.6,29.79,ESE,108,1.0,2.0,66,0.00,,,0.00,Wunderground v.1.15,2013-07-13 08:50:00,
2013-07-13 04:00:00,80.8,68.8,29.79,SE,133,1.0,2.0,67,0.00,,,0.00,Wunderground v.1.15,2013-07-13 09:00:00,
2013-07-13 04:10:00,80.8,68.8,29.79,ESE,107,1.0,2.0,67,0.00,,,0.00,Wunderground v.1.15,2013-07-13 09:10:00,
2013-07-13 04:20:00,80.5,68.5,29.79,SE,125,1.0,1.0,67,0.00,,,0.00,Wunderground v.1.15,2013-07-13 09:20:00,
2013-07-13 04:30:00,80.0,68.9,29.78,ESE,110,0.0,0.0,69,0.00,,,0.00,Wunderground v.1.15,2013-07-13 09:30:00,
2013-07-13 04:40:00,78.9,68.7,29.78,East,84,0.0,0.0,71,0.00,,,0.00,Wunderground v.1.15,2013-07-13 09:40:00,
2013-07-13 04:50:00,78.3,68.5,29.78,ESE,114,0.0,0.0,72,0.00,,,0.00,Wunderground v.1.15,2013-07-13 09:50:00,
2013-07-13 05:00:00,78.3,68.5,29.78,SE,128,0.0,0.0,72,0.00,,,0.00,Wunderground v.1.15,2013-07-13 10:00:00,
2013-07-13 05:10:00,78.6,68.4,29.78,SE,135,1.0,1.0,71,0.00,,,0.00,Wunderground v.1.15,2013-07-13 10:10:00,
2013-07-13 05:20:00,78.8,68.6,29.77,SE,124,2.0,2.0,71,0.00,,,0.00,Wunderground v.1.15,2013-07-13 10:20:00,
2013-07-13 05:30:00,78.9,68.3,29.77,ESE,114,2.0,2.0,70,0.00,,,0.00,Wunderground v.1.15,2013-07-13 10:30:00,
2013-07-13 05:40:00,78.8,68.2,29.77,SE,143,2.0,2.0,70,0.00,,,0.00,Wunderground v.1.15,2013-07-13 10:40:00,
2013-07-13 05:50:00,78.9,68.3,29.77,SE,131,2.0,2.0,70,0.00,,,0.00,Wunderground v.1.15,2013-07-13 10:50:00,
2013-07-13 06:00:00,78.6,68.0,29.77,SE,129,2.0,2.0,70,0.00,,,0.00,Wunderground v.1.15,2013-07-13 11:00:00,
2013-07-13 06:10:00,78.6,68.4,29.78,SE,136,0.0,0.0,71,0.00,,,0.00,Wunderground v.1.15,2013-07-13 11:10:00,
2013-07-13 06:20:00,78.6,68.4,29.78,SE,127,1.0,3.0,71,0.00,,,0.00,Wunderground v.1.15,2013-07-13 11:20:00,
2013-07-13 06:30:00,78.6,68.4,29.78,SSE,155,2.0,2.0,71,0.00,,,0.00,Wunderground v.1.15,2013-07-13 11:30:00,
2013-07-13 06:40:00,78.3,68.1,29.78,ESE,114,2.0,2.0,71,0.00,,,0.00,Wunderground v.1.15,2013-07-13 11:40:00,
2013-07-13 06:50:00,78.3,68.1,29.78,SE,137,2.0,2.0,71,0.00,,,0.00,Wunderground v.1.15,2013-07-13 11:50:00,
2013-07-13 07:00:00,78.4,68.2,29.78,East,101,1.0,3.0,71,0.00,,,0.00,Wunderground v.1.15,2013-07-13 12:00:00,
2013-07-13 07:10:00,78.6,68.4,29.79,South,175,1.0,2.0,71,0.00,,,0.00,Wunderground v.1.15,2013-07-13 12:10:00,
2013-07-13 07:20:00,78.8,68.6,29.78,SSE,152,2.0,7.0,71,0.00,,,0.00,Wunderground v.1.15,2013-07-13 12:20:00,
2013-07-13 07:30:00,79.4,68.8,29.78,SE,129,4.0,4.0,70,0.00,,,0.00,Wunderground v.1.15,2013-07-13 12:30:00,
2013-07-13 07:40:00,80.0,68.9,29.78,SE,130,1.0,1.0,69,0.00,,,0.00,Wunderground v.1.15,2013-07-13 12:40:00,
2013-07-13 07:50:00,80.8,69.2,29.78,SSE,151,0.0,1.0,68,0.00,,,0.00,Wunderground v.1.15,2013-07-13 12:50:00,
2013-07-13 08:00:00,81.5,69.9,29.78,SE,141,1.0,1.0,68,0.00,,,0.00,Wunderground v.1.15,2013-07-13 13:00:00,
2013-07-13 08:10:00,82.4,69.9,29.77,ESE,117,2.0,2.0,66,0.00,,,0.00,Wunderground v.1.15,2013-07-13 13:10:00,
2013-07-13 08:20:00,83.7,69.8,29.77,ESE,123,4.0,6.0,63,0.00,,,0.00,Wunderground v.1.15,2013-07-13 13:20:00,
2013-07-13 08:30:00,84.6,69.2,29.78,SW,229,6.0,8.0,60,0.00,,,0.00,Wunderground v.1.15,2013-07-13 13:30:00,
2013-07-13 08:40:00,85.3,69.3,29.78,South,181,6.0,6.0,59,0.00,,,0.00,Wunderground v.1.15,2013-07-13 13:40:00,
2013-07-13 08:50:00,85.9,68.9,29.78,SSE,149,5.0,7.0,57,0.00,,,0.00,Wunderground v.1.15,2013-07-13 13:50:00,
2013-07-13 09:00:00,87.0,69.4,29.78,SSW,194,4.0,5.0,56,0.00,,,0.00,Wunderground v.1.15,2013-07-13 14:00:00,
2013-07-13 09:10:00,87.8,69.6,29.78,SSW,213,5.0,5.0,55,0.00,,,0.00,Wunderground v.1.15,2013-07-13 14:10:00,
2013-07-13 09:20:00,88.3,69.0,29.78,SSW,205,5.0,5.0,53,0.00,,,0.00,Wunderground v.1.15,2013-07-13 14:20:00,
2013-07-13 09:30:00,88.9,69.0,29.78,SSW,209,6.0,6.0,52,0.00,,,0.00,Wunderground v.1.15,2013-07-13 14:30:00,
2013-07-13 09:40:00,89.4,68.3,29.78,SSW,211,6.0,6.0,50,0.00,,,0.00,Wunderground v.1.15,2013-07-13 14:40:00,
2013-07-13 09:50:00,89.8,68.7,29.77,South,181,5.0,7.0,50,0.00,,,0.00,Wunderground v.1.15,2013-07-13 14:50:00,
2013-07-13 10:00:00,90.5,68.7,29.77,SSW,200,7.0,9.0,49,0.00,,,0.00,Wunderground v.1.15,2013-07-13 15:00:00,
2013-07-13 10:10:00,91.5,68.4,29.77,SSW,212,6.0,7.0,47,0.00,,,0.00,Wunderground v.1.15,2013-07-13 15:10:00,
2013-07-13 10:20:00,92.1,69.6,29.77,South,184,6.0,8.0,48,0.00,,,0.00,Wunderground v.1.15,2013-07-13 15:20:00,
2013-07-13 10:30:00,92.4,69.2,29.77,SE,141,7.0,7.0,47,0.00,,,0.00,Wunderground v.1.15,2013-07-13 15:30:00,
2013-07-13 10:40:00,93.4,68.2,29.77,ESE,116,6.0,6.0,44,0.00,,,0.00,Wunderground v.1.15,2013-07-13 15:40:00,
2013-07-13 10:50:00,94.2,69.6,29.77,South,190,6.0,6.0,45,0.00,,,0.00,Wunderground v.1.15,2013-07-13 15:50:00,
2013-07-13 11:00:00,95.0,69.0,29.77,South,172,5.0,5.0,43,0.00,,,0.00,Wunderground v.1.15,2013-07-13 16:00:00,
2013-07-13 11:10:00,96.0,68.5,29.76,ESE,121,6.0,6.0,41,0.00,,,0.00,Wunderground v.1.15,2013-07-13 16:10:00,
2013-07-13 11:20:00,96.6,66.8,29.76,SE,146,6.0,6.0,38,0.00,,,0.00,Wunderground v.1.15,2013-07-13 16:20:00,
2013-07-13 11:30:00,97.1,67.3,29.76,SSW,203,6.0,6.0,38,0.00,,,0.00,Wunderground v.1.15,2013-07-13 16:30:00,
2013-07-13 11:40:00,98.2,67.5,29.76,SSW,212,5.0,5.0,37,0.00,,,0.00,Wunderground v.1.15,2013-07-13 16:40:00,
2013-07-13 11:50:00,98.7,67.1,29.76,SSE,150,4.0,9.0,36,0.00,,,0.00,Wunderground v.1.15,2013-07-13 16:50:00,
2013-07-13 12:00:00,98.8,66.4,29.76,WSW,238,6.0,6.0,35,0.00,,,0.00,Wunderground v.1.15,2013-07-13 17:00:00,
2013-07-13 12:10:00,99.7,67.2,29.75,SSW,199,5.0,6.0,35,0.00,,,0.00,Wunderground v.1.15,2013-07-13 17:10:00,
2013-07-13 12:20:00,99.9,67.3,29.75,South,170,6.0,7.0,35,0.00,,,0.00,Wunderground v.1.15,2013-07-13 17:20:00,
2013-07-13 12:30:00,100.5,66.2,29.75,SSE,152,6.0,6.0,33,0.00,,,0.00,Wunderground v.1.15,2013-07-13 17:30:00,
2013-07-13 12:40:00,101.4,66.1,29.74,SE,125,3.0,3.0,32,0.00,,,0.00,Wunderground v.1.15,2013-07-13 17:40:00,
2013-07-13 12:50:00,101.3,66.0,29.74,South,191,6.0,6.0,32,0.00,,,0.00,Wunderground v.1.15,2013-07-13 17:50:00,
2013-07-13 13:00:00,101.8,66.4,29.74,WSW,242,5.0,5.0,32,0.00,,,0.00,Wunderground v.1.15,2013-07-13 18:00:00,
2013-07-13 13:10:00,102.4,66.9,29.74,SSE,156,6.0,6.0,32,0.00,,,0.00,Wunderground v.1.15,2013-07-13 18:10:00,
2013-07-13 13:20:00,102.7,67.2,29.73,SSE,155,4.0,11.0,32,0.00,,,0.00,Wunderground v.1.15,2013-07-13 18:20:00,
2013-07-13 13:30:00,103.1,67.5,29.73,SSW,208,5.0,5.0,32,0.00,,,0.00,Wunderground v.1.15,2013-07-13 18:30:00,
2013-07-13 13:40:00,102.8,67.3,29.73,SSE,162,5.0,5.0,32,0.00,,,0.00,Wunderground v.1.15,2013-07-13 18:40:00,
2013-07-13 13:50:00,102.6,69.7,29.72,WSW,238,4.0,4.0,35,0.00,,,0.00,Wunderground v.1.15,2013-07-13 18:50:00,
2013-07-13 14:00:00,103.1,68.4,29.72,ESE,112,6.0,6.0,33,0.00,,,0.00,Wunderground v.1.15,2013-07-13 19:00:00,
2013-07-13 14:10:00,103.4,69.6,29.71,SE,136,5.0,7.0,34,0.00,,,0.00,Wunderground v.1.15,2013-07-13 19:10:00,
2013-07-13 14:20:00,103.3,68.6,29.71,ESE,110,7.0,9.0,33,0.00,,,0.00,Wunderground v.1.15,2013-07-13 19:20:00,
2013-07-13 14:30:00,103.4,67.8,29.71,SSE,162,7.0,9.0,32,0.00,,,0.00,Wunderground v.1.15,2013-07-13 19:30:00,
2013-07-13 14:40:00,103.3,68.6,29.71,SE,133,6.0,6.0,33,0.00,,,0.00,Wunderground v.1.15,2013-07-13 19:40:00,
2013-07-13 14:50:00,103.3,68.6,29.70,SSE,156,7.0,8.0,33,0.00,,,0.00,Wunderground v.1.15,2013-07-13 19:50:00,
2013-07-13 15:00:00,103.2,69.4,29.70,ESE,109,9.0,10.0,34,0.00,,,0.00,Wunderground v.1.15,2013-07-13 20:00:00,
2013-07-13 15:10:00,102.7,69.8,29.70,SE,139,8.0,10.0,35,0.00,,,0.00,Wunderground v.1.15,2013-07-13 20:10:00,
2013-07-13 15:20:00,102.5,69.6,29.69,SE,131,9.0,9.0,35,0.00,,,0.00,Wunderground v.1.15,2013-07-13 20:20:00,
2013-07-13 15:30:00,102.6,69.7,29.69,South,190,10.0,10.0,35,0.00,,,0.00,Wunderground v.1.15,2013-07-13 20:30:00,
2013-07-13 15:40:00,102.6,71.3,29.69,ENE,65,9.0,11.0,37,0.00,,,0.00,Wunderground v.1.15,2013-07-13 20:40:00,
2013-07-13 15:50:00,102.4,70.4,29.69,SSE,151,7.0,7.0,36,0.00,,,0.00,Wunderground v.1.15,2013-07-13 20:50:00,
2013-07-13 16:00:00,102.4,70.4,29.69,SE,135,9.0,9.0,36,0.00,,,0.00,Wunderground v.1.15,2013-07-13 21:00:00,
2013-07-13 16:10:00,102.6,69.7,29.68,South,188,8.0,8.0,35,0.00,,,0.00,Wunderground v.1.15,2013-07-13 21:10:00,
2013-07-13 16:20:00,102.5,69.6,29.68,SE,128,9.0,9.0,35,0.00,,,0.00,Wunderground v.1.15,2013-07-13 21:20:00,
2013-07-13 16:30:00,102.7,70.6,29.68,SE,127,8.0,8.0,36,0.00,,,0.00,Wunderground v.1.15,2013-07-13 21:30:00,
2013-07-13 16:40:00,102.8,70.7,29.68,SE,141,8.0,8.0,36,0.00,,,0.00,Wunderground v.1.15,2013-07-13 21:40:00,
2013-07-13 16:50:00,102.4,71.2,29.67,ESE,120,8.0,12.0,37,0.00,,,0.00,Wunderground v.1.15,2013-07-13 21:50:00,
2013-07-13 17:00:00,101.9,70.7,29.67,ESE,115,8.0,8.0,37,0.00,,,0.00,Wunderground v.1.15,2013-07-13 22:00:00,
2013-07-13 17:10:00,101.5,70.4,29.67,East,101,9.0,9.0,37,0.00,,,0.00,Wunderground v.1.15,2013-07-13 22:10:00,
2013-07-13 17:20:00,101.3,71.0,29.67,ESE,113,8.0,8.0,38,0.00,,,0.00,Wunderground v.1.15,2013-07-13 22:20:00,
2013-07-13 17:30:00,101.5,69.6,29.67,East,89,9.0,11.0,36,0.00,,,0.00,Wunderground v.1.15,2013-07-13 22:30:00,
2013-07-13 17:40:00,101.5,70.4,29.67,SE,143,9.0,15.0,37,0.00,,,0.00,Wunderground v.1.15,2013-07-13 22:40:00,
2013-07-13 17:50:00,101.1,70.0,29.66,SSE,151,9.0,10.0,37,0.00,,,0.00,Wunderground v.1.15,2013-07-13 22:50:00,
2013-07-13 18:00:00,101.0,70.7,29.66,SE,124,9.0,9.0,38,0.00,,,0.00,Wunderground v.1.15,2013-07-13 23:00:00,
2013-07-13 18:10:00,100.9,71.4,29.66,SE,128,8.0,8.0,39,0.00,,,0.00,Wunderground v.1.15,2013-07-13 23:10:00,
2013-07-13 18:20:00,100.5,70.3,29.66,ENE,61,9.0,9.0,38,0.00,,,0.00,Wunderground v.1.15,2013-07-13 23:20:00,
2013-07-13 18:30:00,100.0,70.6,29.66,SSE,159,9.0,15.0,39,0.00,,,0.00,Wunderground v.1.15,2013-07-13 23:30:00,
2013-07-13 18:40:00,99.9,69.0,29.66,SSE,162,8.0,9.0,37,0.00,,,0.00,Wunderground v.1.15,2013-07-13 23:40:00,
2013-07-13 18:50:00,99.4,70.1,29.66,ESE,112,10.0,10.0,39,0.00,,,0.00,Wunderground v.1.15,2013-07-13 23:50:00,
2013-07-13 19:00:00,98.9,71.1,29.66,SE,138,8.0,10.0,41,0.00,,,0.00,Wunderground v.1.15,2013-07-14 00:00:00,
2013-07-13 19:10:00,98.3,72.0,29.66,SE,124,9.0,11.0,43,0.00,,,0.00,Wunderground v.1.15,2013-07-14 00:10:00,
2013-07-13 19:20:00,97.4,73.1,29.66,ESE,116,9.0,9.0,46,0.00,,,0.00,Wunderground v.1.15,2013-07-14 00:20:00,
2013-07-13 19:30:00,96.5,72.3,29.66,SE,145,8.0,8.0,46,0.00,,,0.00,Wunderground v.1.15,2013-07-14 00:30:00,
2013-07-13 19:40:00,95.8,72.3,29.66,SSE,166,8.0,8.0,47,0.00,,,0.00,Wunderground v.1.15,2013-07-14 00:40:00,
2013-07-13 19:50:00,95.2,71.8,29.66,SSE,160,10.0,10.0,47,0.00,,,0.00,Wunderground v.1.15,2013-07-14 00:50:00,
2013-07-13 20:00:00,94.7,72.0,29.67,ESE,117,8.0,10.0,48,0.00,,,0.00,Wunderground v.1.15,2013-07-14 01:00:00,
2013-07-13 20:10:00,94.3,72.2,29.67,ESE,121,7.0,7.0,49,0.00,,,0.00,Wunderground v.1.15,2013-07-14 01:10:00,
2013-07-13 20:20:00,93.6,72.2,29.67,ESE,104,6.0,6.0,50,0.00,,,0.00,Wunderground v.1.15,2013-07-14 01:20:00,
2013-07-13 20:30:00,92.9,72.1,29.68,ESE,120,5.0,7.0,51,0.00,,,0.00,Wunderground v.1.15,2013-07-14 01:30:00,
2013-07-13 20:40:00,92.0,71.9,29.68,ESE,120,6.0,6.0,52,0.00,,,0.00,Wunderground v.1.15,2013-07-14 01:40:00,
2013-07-13 20:50:00,91.4,72.4,29.69,SE,127,6.0,6.0,54,0.00,,,0.00,Wunderground v.1.15,2013-07-14 01:50:00,
2013-07-13 21:00:00,90.6,72.8,29.69,SE,146,5.0,5.0,56,0.00,,,0.00,Wunderground v.1.15,2013-07-14 02:00:00,
2013-07-13 21:10:00,90.0,72.2,29.69,ESE,110,6.0,6.0,56,0.00,,,0.00,Wunderground v.1.15,2013-07-14 02:10:00,
2013-07-13 21:20:00,89.6,71.8,29.70,ESE,121,6.0,9.0,56,0.00,,,0.00,Wunderground v.1.15,2013-07-14 02:20:00,
2013-07-13 21:30:00,89.1,71.4,29.70,SE,136,6.0,7.0,56,0.00,,,0.00,Wunderground v.1.15,2013-07-14 02:30:00,
2013-07-13 21:40:00,88.6,71.4,29.71,SE,128,4.0,4.0,57,0.00,,,0.00,Wunderground v.1.15,2013-07-14 02:40:00,
2013-07-13 21:50:00,88.0,71.4,29.72,ENE,58,3.0,5.0,58,0.00,,,0.00,Wunderground v.1.15,2013-07-14 02:50:00,
2013-07-13 22:00:00,87.8,71.2,29.72,SSE,166,5.0,5.0,58,0.00,,,0.00,Wunderground v.1.15,2013-07-14 03:00:00,
2013-07-13 22:10:00,87.5,70.9,29.72,SE,135,5.0,5.0,58,0.00,,,0.00,Wunderground v.1.15,2013-07-14 03:10:00,
2013-07-13 22:20:00,87.2,70.6,29.72,SE,145,5.0,5.0,58,0.00,,,0.00,Wunderground v.1.15,2013-07-14 03:20:00,
2013-07-13 22:30:00,86.7,70.7,29.73,ENE,70,5.0,5.0,59,0.00,,,0.00,Wunderground v.1.15,2013-07-14 03:30:00,
2013-07-13 22:40:00,86.3,70.8,29.73,SE,131,5.0,5.0,60,0.00,,,0.00,Wunderground v.1.15,2013-07-14 03:40:00,
2013-07-13 22:50:00,85.7,70.7,29.72,East,91,4.0,4.0,61,0.00,,,0.00,Wunderground v.1.15,2013-07-14 03:50:00,
2013-07-13 23:00:00,85.3,70.8,29.72,SSE,160,5.0,7.0,62,0.00,,,0.00,Wunderground v.1.15,2013-07-14 04:00:00,
2013-07-13 23:10:00,85.3,71.3,29.73,SE,142,7.0,7.0,63,0.00,,,0.00,Wunderground v.1.15,2013-07-14 04:10:00,
2013-07-13 23:20:00,85.0,71.5,29.73,SE,142,6.0,6.0,64,0.00,,,0.00,Wunderground v.1.15,2013-07-14 04:20:00,
2013-07-13 23:30:00,84.7,71.2,29.73,ESE,120,4.0,4.0,64,0.00,,,0.00,Wunderground v.1.15,2013-07-14 04:30:00,
2013-07-13 23:40:00,84.6,71.1,29.73,SSE,164,6.0,12.0,64,0.00,,,0.00,Wunderground v.1.15,2013-07-14 04:40:00,
2013-07-13 23:50:00,84.5,71.0,29.74,ESE,120,5.0,5.0,64,0.00,,,0.00,Wunderground v.1.15,2013-07-14 04:50:00,